createdAt,value
2022-10-29T00:01:22.407Z,77.94
2022-10-29T00:03:51.683Z,77.85
2022-10-29T00:08:49.411Z,78.18
2022-10-29T00:11:21.454Z,78.33
2022-10-29T00:13:55.771Z,78.40
2022-10-29T00:16:27.385Z,78.83
2022-10-29T00:18:57.694Z,78.44
2022-10-29T00:21:28.019Z,78.60
2022-10-29T00:23:59.172Z,78.81
2022-10-29T00:26:30.726Z,78.75
2022-10-29T00:29:00.169Z,79.17
2022-10-29T00:31:29.164Z,79.16
2022-10-29T00:33:58.539Z,79.27
2022-10-29T00:36:30.078Z,79.03
2022-10-29T00:38:59.585Z,79.10
2022-10-29T00:41:30.606Z,79.01
2022-10-29T00:44:23.823Z,78.81
2022-10-29T00:46:58.695Z,78.64
2022-10-29T00:49:28.952Z,78.68
2022-10-29T00:51:58.600Z,78.52
2022-10-29T00:54:29.535Z,78.27
2022-10-29T00:57:15.867Z,77.80
2022-10-29T01:02:24.848Z,77.96
2022-10-29T01:04:56.505Z,77.75
2022-10-29T01:07:28.753Z,77.84
2022-10-29T01:10:00.192Z,77.70
2022-10-29T01:12:39.864Z,77.56
2022-10-29T01:15:35.849Z,77.96
2022-10-29T01:18:23.292Z,78.12
2022-10-29T01:21:10.246Z,77.99
2022-10-29T01:24:09.947Z,78.05
2022-10-29T01:27:07.195Z,78.35
2022-10-29T01:29:46.259Z,78.38
2022-10-29T01:32:18.409Z,78.02
2022-10-29T01:35:00.312Z,78.14
2022-10-29T01:37:43.053Z,78.04
2022-10-29T01:40:36.694Z,78.72
2022-10-29T01:43:39.211Z,78.35
2022-10-29T01:46:19.324Z,78.30
2022-10-29T01:48:56.526Z,78.63
2022-10-29T01:51:30.766Z,78.67
2022-10-29T01:54:02.824Z,78.52
2022-10-29T01:56:32.711Z,78.62
2022-10-29T01:59:04.265Z,78.85
2022-10-29T02:01:57.316Z,78.69
2022-10-29T02:04:47.440Z,78.91
2022-10-29T02:07:26.464Z,78.67
2022-10-29T02:10:27.231Z,79.09
2022-10-29T02:12:58.722Z,79.35
2022-10-29T02:16:00.124Z,78.99
2022-10-29T02:18:30.178Z,78.92
2022-10-29T02:20:59.580Z,79.36
2022-10-29T02:23:30.110Z,79.80
2022-10-29T02:25:59.398Z,79.60
2022-10-29T02:28:28.719Z,79.96
2022-10-29T02:30:57.972Z,79.64
2022-10-29T02:33:27.352Z,79.47
2022-10-29T02:35:56.425Z,79.60
2022-10-29T02:38:26.648Z,77.97
2022-10-29T02:40:56.042Z,77.38
2022-10-29T02:43:25.524Z,77.60
2022-10-29T02:46:12.403Z,77.94
2022-10-29T02:48:42.686Z,77.54
2022-10-29T02:51:12.372Z,77.07
2022-10-29T02:53:41.844Z,75.04
2022-10-29T02:56:12.415Z,73.80
2022-10-29T02:58:41.738Z,74.25
2022-10-29T03:01:10.921Z,74.86
2022-10-29T03:03:40.376Z,74.89
2022-10-29T03:06:17.368Z,74.73
2022-10-29T03:08:47.422Z,74.83
2022-10-29T03:11:16.849Z,74.18
2022-10-29T03:13:45.944Z,74.37
2022-10-29T03:16:17.271Z,73.94
2022-10-29T03:18:46.524Z,73.75
2022-10-29T03:21:15.636Z,72.56
2022-10-29T03:23:45.516Z,72.72
2022-10-29T03:26:14.596Z,73.33
2022-10-29T03:31:13.608Z,73.01
2022-10-29T03:33:42.943Z,73.03
2022-10-29T03:36:12.444Z,72.35
2022-10-29T03:38:41.992Z,71.75
2022-10-29T03:41:11.993Z,72.12
2022-10-29T03:43:42.200Z,71.77
2022-10-29T03:46:11.753Z,71.51
2022-10-29T03:48:41.595Z,71.08
2022-10-29T03:51:12.178Z,71.37
2022-10-29T03:53:41.854Z,70.72
2022-10-29T03:56:12.295Z,70.04
2022-10-29T03:58:42.852Z,69.26
2022-10-29T04:01:12.582Z,68.41
2022-10-29T04:03:43.750Z,68.33
2022-10-29T04:06:16.585Z,68.66
2022-10-29T04:08:46.148Z,68.90
2022-10-29T04:11:15.742Z,69.40
2022-10-29T04:13:45.119Z,68.51
2022-10-29T04:16:14.386Z,69.05
2022-10-29T04:18:43.692Z,68.64
2022-10-29T04:29:41.427Z,57.61
2022-10-29T04:32:10.861Z,57.48
2022-10-29T04:34:40.317Z,57.09
2022-10-29T04:37:09.953Z,55.90
2022-10-29T04:39:39.349Z,55.89
2022-10-29T04:42:08.817Z,55.64
2022-10-29T04:44:38.962Z,54.79
2022-10-29T04:47:08.281Z,55.71
2022-10-29T04:49:37.999Z,55.58
2022-10-29T04:52:07.494Z,55.67
2022-10-29T04:54:36.723Z,53.75
2022-10-29T04:57:06.149Z,53.73
2022-10-29T04:59:35.674Z,52.83
2022-10-29T05:02:04.992Z,52.29
2022-10-29T05:04:34.512Z,51.68
2022-10-29T05:07:04.012Z,49.98
2022-10-29T05:09:33.495Z,50.71
2022-10-29T05:12:02.812Z,49.21
2022-10-29T05:14:33.079Z,49.72
2022-10-29T05:17:02.339Z,48.41
2022-10-29T05:19:31.972Z,47.93
2022-10-29T05:22:01.747Z,49.08
2022-10-29T05:24:30.787Z,46.85
2022-10-29T05:27:00.562Z,47.44
2022-10-29T05:29:29.899Z,48.49
2022-10-29T05:31:59.411Z,47.93
2022-10-29T05:34:28.827Z,47.81
2022-10-29T05:36:58.592Z,46.99
2022-10-29T05:39:27.662Z,46.05
2022-10-29T05:41:57.632Z,46.60
2022-10-29T05:44:26.795Z,46.78
2022-10-29T05:46:57.935Z,47.09
2022-10-29T05:49:27.247Z,45.97
2022-10-29T05:51:56.166Z,46.57
2022-10-29T05:54:26.412Z,46.14
2022-10-29T05:56:55.976Z,45.22
2022-10-29T05:59:31.016Z,44.79
2022-10-29T06:02:03.034Z,46.11
2022-10-29T06:04:32.468Z,45.83
2022-10-29T06:07:02.988Z,46.12
2022-10-29T06:09:33.482Z,45.61
2022-10-29T06:12:02.940Z,45.56
2022-10-29T06:14:32.440Z,45.63
2022-10-29T06:17:03.465Z,44.53
2022-10-29T06:19:33.064Z,44.06
2022-10-29T06:22:02.929Z,43.28
2022-10-29T06:24:32.483Z,43.60
2022-10-29T06:27:01.556Z,43.23
2022-10-29T06:29:31.908Z,43.94
2022-10-29T06:32:01.442Z,43.64
2022-10-29T06:34:30.751Z,44.13
2022-10-29T06:37:03.329Z,43.52
2022-10-29T06:39:32.882Z,42.11
2022-10-29T06:42:02.184Z,42.14
2022-10-29T06:44:50.896Z,42.12
2022-10-29T06:47:21.915Z,41.45
2022-10-29T06:49:51.206Z,40.88
2022-10-29T06:52:20.434Z,41.44
2022-10-29T06:55:09.127Z,40.91
2022-10-29T06:57:39.595Z,40.83
2022-10-29T07:00:09.530Z,40.56
2022-10-29T07:02:38.746Z,39.51
2022-10-29T07:05:08.185Z,39.48
2022-10-29T07:07:38.148Z,39.91
2022-10-29T07:10:09.657Z,40.53
2022-10-29T07:12:57.625Z,41.03
2022-10-29T07:15:45.768Z,40.55
2022-10-29T07:18:14.922Z,40.45
2022-10-29T07:20:46.122Z,40.43
2022-10-29T07:23:15.876Z,40.85
2022-10-29T07:25:45.040Z,40.79
2022-10-29T07:28:21.864Z,40.80
2022-10-29T07:30:51.864Z,39.60
2022-10-29T07:33:20.938Z,40.27
2022-10-29T07:35:49.878Z,40.53
2022-10-29T07:38:19.758Z,40.32
2022-10-29T07:40:51.166Z,39.92
2022-10-29T07:43:22.742Z,39.56
2022-10-29T07:45:52.896Z,39.80
2022-10-29T07:48:22.992Z,39.36
2022-10-29T07:50:52.215Z,39.65
2022-10-29T07:53:21.460Z,39.14
2022-10-29T07:55:55.129Z,39.07
2022-10-29T07:58:25.230Z,39.74
2022-10-29T08:00:55.114Z,39.83
2022-10-29T08:03:24.587Z,39.01
2022-10-29T08:05:56.617Z,38.52
2022-10-29T08:08:27.644Z,38.94
2022-10-29T08:11:02.614Z,39.36
2022-10-29T08:13:32.380Z,38.35
2022-10-29T08:16:01.922Z,38.81
2022-10-29T08:18:31.095Z,38.66
2022-10-29T08:21:00.347Z,39.05
2022-10-29T08:23:29.467Z,39.04
2022-10-29T08:26:01.437Z,38.19
2022-10-29T08:28:33.153Z,37.66
2022-10-29T08:31:05.633Z,37.67
2022-10-29T08:33:34.540Z,37.57
2022-10-29T08:36:03.825Z,38.32
2022-10-29T08:38:33.503Z,37.69
2022-10-29T08:41:19.457Z,36.61
2022-10-29T08:44:07.918Z,36.62
2022-10-29T08:46:49.374Z,36.55
2022-10-29T08:49:49.046Z,36.73
2022-10-29T08:52:27.990Z,37.19
2022-10-29T08:55:20.869Z,37.36
2022-10-29T08:58:02.432Z,36.49
2022-10-29T09:00:39.980Z,36.89
2022-10-29T09:03:14.163Z,35.50
2022-10-29T09:06:02.550Z,36.73
2022-10-29T09:09:09.232Z,36.79
2022-10-29T09:12:05.872Z,36.99
2022-10-29T09:14:41.280Z,37.30
2022-10-29T09:17:47.666Z,37.20
2022-10-29T09:20:34.348Z,37.54
2022-10-29T09:23:30.803Z,37.33
2022-10-29T09:26:07.431Z,36.67
2022-10-29T09:28:56.953Z,37.41
2022-10-29T09:31:42.750Z,37.31
2022-10-29T09:34:23.723Z,37.31
2022-10-29T09:36:52.889Z,36.80
2022-10-29T09:39:41.200Z,37.08
2022-10-29T09:42:28.445Z,38.33
2022-10-29T09:45:04.458Z,37.61
2022-10-29T09:47:45.474Z,38.17
2022-10-29T09:50:40.764Z,37.56
2022-10-29T09:53:10.365Z,37.96
2022-10-29T09:55:45.742Z,37.85
2022-10-29T09:58:22.953Z,38.83
2022-10-29T10:00:56.437Z,39.89
2022-10-29T10:03:56.643Z,39.62
2022-10-29T10:06:26.670Z,39.54
2022-10-29T10:09:02.903Z,39.59
2022-10-29T10:11:50.898Z,38.44
2022-10-29T10:14:23.178Z,39.38
2022-10-29T10:17:11.263Z,38.94
2022-10-29T10:19:49.842Z,37.67
2022-10-29T10:22:25.780Z,39.37
2022-10-29T10:25:05.191Z,39.81
2022-10-29T10:27:34.739Z,40.23
2022-10-29T10:30:06.808Z,38.60
2022-10-29T10:32:38.911Z,39.29
2022-10-29T10:35:32.039Z,39.25
2022-10-29T10:38:14.220Z,40.56
2022-10-29T10:40:44.159Z,41.49
2022-10-29T10:43:23.676Z,41.85
2022-10-29T10:46:05.358Z,42.82
2022-10-29T10:51:38.174Z,40.78
2022-10-29T10:54:26.211Z,40.26
2022-10-29T10:57:06.685Z,39.79
2022-10-29T10:59:50.876Z,40.51
2022-10-29T11:02:37.749Z,40.33
2022-10-29T11:05:27.563Z,40.18
2022-10-29T11:08:23.197Z,40.39
2022-10-29T11:10:57.845Z,41.37
2022-10-29T11:13:34.366Z,42.53
2022-10-29T11:16:21.210Z,41.97
2022-10-29T11:19:02.124Z,41.99
2022-10-29T11:21:45.231Z,43.12
2022-10-29T11:24:14.358Z,42.90
2022-10-29T11:26:56.345Z,44.53
2022-10-29T11:29:53.361Z,44.21
2022-10-29T11:32:43.933Z,45.47
2022-10-29T11:35:23.898Z,45.11
2022-10-29T11:38:11.780Z,45.36
2022-10-29T11:40:56.020Z,45.12
2022-10-29T11:43:25.780Z,45.74
2022-10-29T11:46:15.602Z,46.13
2022-10-29T11:49:27.664Z,48.36
2022-10-29T11:52:13.143Z,48.88
2022-10-29T11:55:17.517Z,47.60
2022-10-29T11:57:56.433Z,48.08
2022-10-29T12:00:27.078Z,49.08
2022-10-29T12:03:13.888Z,49.47
2022-10-29T12:06:05.243Z,47.38
2022-10-29T12:08:59.237Z,47.78
2022-10-29T12:11:46.825Z,47.80
2022-10-29T12:14:26.171Z,48.77
2022-10-29T12:17:11.656Z,51.10
2022-10-29T12:19:58.684Z,50.22
2022-10-29T12:23:02.565Z,48.36
2022-10-29T12:25:49.727Z,50.68
2022-10-29T12:28:40.964Z,49.56
2022-10-29T12:31:18.735Z,50.37
2022-10-29T12:33:56.107Z,50.18
2022-10-29T12:36:57.693Z,49.55
2022-10-29T12:39:38.698Z,51.62
2022-10-29T12:42:28.608Z,50.67
2022-10-29T12:45:25.499Z,51.03
2022-10-29T12:48:22.003Z,52.58
2022-10-29T12:51:18.727Z,52.68
2022-10-29T12:54:05.740Z,53.88
2022-10-29T12:56:35.403Z,53.89
2022-10-29T12:59:25.253Z,52.14
2022-10-29T13:02:11.111Z,52.01
2022-10-29T13:05:12.260Z,51.72
2022-10-29T13:07:47.616Z,53.23
2022-10-29T13:10:27.260Z,55.22
2022-10-29T13:12:56.547Z,55.39
2022-10-29T13:15:39.872Z,54.53
2022-10-29T13:18:30.528Z,55.10
2022-10-29T13:20:59.986Z,57.31
2022-10-29T13:23:30.116Z,57.53
2022-10-29T13:26:06.437Z,57.25
2022-10-29T13:28:38.308Z,56.65
2022-10-29T13:31:07.731Z,56.99
2022-10-29T13:33:39.096Z,57.30
2022-10-29T13:36:33.143Z,57.51
2022-10-29T13:39:07.385Z,56.75
2022-10-29T13:41:45.140Z,58.36
2022-10-29T13:44:26.574Z,59.09
2022-10-29T13:47:04.109Z,59.14
2022-10-29T13:49:46.126Z,59.24
2022-10-29T13:52:21.111Z,59.15
2022-10-29T13:55:02.683Z,59.62
2022-10-29T13:57:53.850Z,59.61
2022-10-29T14:00:23.808Z,59.35
2022-10-29T14:03:15.130Z,58.45
2022-10-29T14:05:48.873Z,57.88
2022-10-29T14:08:39.747Z,57.84
2022-10-29T14:11:38.691Z,58.27
2022-10-29T14:14:28.595Z,58.08
2022-10-29T14:17:21.048Z,57.79
2022-10-29T14:19:52.831Z,58.73
2022-10-29T14:22:36.536Z,58.64
2022-10-29T14:25:31.276Z,58.47
2022-10-29T14:28:33.156Z,58.97
2022-10-29T14:31:13.580Z,58.75
2022-10-29T14:33:47.566Z,59.05
2022-10-29T14:36:20.634Z,58.71
2022-10-29T14:39:03.088Z,58.93
2022-10-29T14:41:33.821Z,58.18
2022-10-29T14:44:35.687Z,57.43
2022-10-29T14:47:15.233Z,57.97
2022-10-29T14:49:50.193Z,58.96
2022-10-29T14:52:36.406Z,59.15
2022-10-29T14:55:32.161Z,58.43
2022-10-29T14:58:09.370Z,58.27
2022-10-29T15:00:39.107Z,59.09
2022-10-29T15:03:09.169Z,59.11
2022-10-29T15:05:39.759Z,59.29
2022-10-29T15:08:17.591Z,58.77
2022-10-29T15:10:57.313Z,58.29
2022-10-29T15:13:30.531Z,58.43
2022-10-29T15:16:10.314Z,59.45
2022-10-29T15:18:40.737Z,59.21
2022-10-29T15:21:10.074Z,60.14
2022-10-29T15:23:46.618Z,59.93
2022-10-29T15:26:24.557Z,60.50
2022-10-29T15:28:58.486Z,60.49
2022-10-29T15:31:35.379Z,60.95
2022-10-29T15:34:30.887Z,61.29
2022-10-29T15:37:14.641Z,60.72
2022-10-29T15:39:58.959Z,60.59
2022-10-29T15:42:36.776Z,60.55
2022-10-29T15:45:18.033Z,61.26
2022-10-29T15:48:13.214Z,61.09
2022-10-29T15:50:47.366Z,61.74
2022-10-29T15:53:18.138Z,62.00
2022-10-29T15:55:47.561Z,61.58
2022-10-29T15:58:21.035Z,62.31
2022-10-29T16:00:51.297Z,62.05
2022-10-29T16:03:23.284Z,62.45
2022-10-29T16:06:05.104Z,62.79
2022-10-29T16:08:51.470Z,62.89
2022-10-29T16:11:22.178Z,63.82
2022-10-29T16:13:54.527Z,64.04
2022-10-29T16:16:26.918Z,64.15
2022-10-29T16:18:56.212Z,64.17
2022-10-29T16:21:27.434Z,64.04
2022-10-29T16:23:56.921Z,64.44
2022-10-29T16:26:27.475Z,64.87
2022-10-29T16:28:57.867Z,65.22
2022-10-29T16:31:29.451Z,65.44
2022-10-29T16:34:00.766Z,65.52
2022-10-29T16:36:30.129Z,64.97
2022-10-29T16:38:59.364Z,65.28
2022-10-29T16:41:29.254Z,65.38
2022-10-29T16:43:58.397Z,65.54
2022-10-29T16:46:28.226Z,65.91
2022-10-29T16:48:57.361Z,65.87
2022-10-29T16:51:26.411Z,66.05
2022-10-29T16:53:56.203Z,65.55
2022-10-29T16:56:25.245Z,65.55
2022-10-29T16:59:01.548Z,65.87
2022-10-29T17:01:31.468Z,65.93
2022-10-29T17:04:00.931Z,65.84
2022-10-29T17:06:30.172Z,65.64
2022-10-29T17:08:58.998Z,65.50
2022-10-29T17:11:28.310Z,65.23
2022-10-29T17:13:57.358Z,65.15
2022-10-29T17:16:27.147Z,65.53
2022-10-29T17:18:57.428Z,66.11
2022-10-29T17:21:26.878Z,66.29
2022-10-29T17:23:56.296Z,65.98
2022-10-29T17:26:25.532Z,66.38
2022-10-29T17:28:54.725Z,67.05
2022-10-29T17:31:24.195Z,67.33
2022-10-29T17:33:53.110Z,67.10
2022-10-29T17:36:22.470Z,66.66
2022-10-29T17:38:51.673Z,66.73
2022-10-29T17:41:20.817Z,67.50
2022-10-29T17:43:50.802Z,67.31
2022-10-29T17:46:19.648Z,67.15
2022-10-29T17:48:48.567Z,67.24
2022-10-29T17:51:17.908Z,67.35
2022-10-29T17:53:49.253Z,67.61
2022-10-29T17:56:21.168Z,67.59
2022-10-29T17:58:50.446Z,67.55
2022-10-29T18:01:22.112Z,67.22
2022-10-29T18:03:51.357Z,66.46
2022-10-29T18:06:20.409Z,65.61
2022-10-29T18:08:49.832Z,66.04
2022-10-29T18:11:21.246Z,66.17
2022-10-29T18:13:52.619Z,66.50
2022-10-29T18:16:24.218Z,67.36
2022-10-29T18:19:01.266Z,66.71
2022-10-29T18:21:32.790Z,66.70
2022-10-29T18:24:02.032Z,66.71
2022-10-29T18:26:33.301Z,67.18
2022-10-29T18:29:05.796Z,67.56
2022-10-29T18:31:36.330Z,67.62
2022-10-29T18:34:08.741Z,67.37
2022-10-29T18:36:38.462Z,67.38
2022-10-29T18:39:07.702Z,67.77
2022-10-29T18:41:38.071Z,67.12
2022-10-29T18:44:07.348Z,67.29
2022-10-29T18:46:36.935Z,67.46
2022-10-29T18:49:06.527Z,67.57
2022-10-29T18:51:35.617Z,66.76
2022-10-29T18:54:06.438Z,66.29
2022-10-29T18:56:35.980Z,66.91
2022-10-29T18:59:05.149Z,67.17
2022-10-29T19:01:39.296Z,67.48
2022-10-29T19:04:12.560Z,67.71
2022-10-29T19:06:42.458Z,68.39
2022-10-29T19:09:12.446Z,68.13
2022-10-29T19:11:42.619Z,67.47
2022-10-29T19:14:15.182Z,67.17
2022-10-29T19:16:44.586Z,66.95
2022-10-29T19:19:17.046Z,66.74
2022-10-29T19:21:48.472Z,67.32
2022-10-29T19:24:18.100Z,68.41
2022-10-29T19:26:47.126Z,68.76
2022-10-29T19:29:16.782Z,68.33
2022-10-29T19:31:47.613Z,67.50
2022-10-29T19:34:17.084Z,67.43
2022-10-29T19:36:48.073Z,66.87
2022-10-29T19:39:18.309Z,67.28
2022-10-29T19:41:47.438Z,66.82
2022-10-29T19:44:16.352Z,66.25
2022-10-29T19:46:45.671Z,67.02
2022-10-29T19:49:15.901Z,66.70
2022-10-29T19:51:47.518Z,67.19
2022-10-29T19:54:16.722Z,66.78
2022-10-29T19:56:45.722Z,66.64
2022-10-29T19:59:15.122Z,66.32
2022-10-29T20:01:45.346Z,66.08
2022-10-29T20:04:14.662Z,65.59
2022-10-29T20:06:44.524Z,65.65
2022-10-29T20:09:13.444Z,66.01
2022-10-29T20:11:42.962Z,66.14
2022-10-29T20:14:12.222Z,66.25
2022-10-29T20:16:42.022Z,65.51
2022-10-29T20:19:12.654Z,66.28
2022-10-29T20:21:42.298Z,66.76
2022-10-29T20:24:11.271Z,66.85
2022-10-29T20:26:40.368Z,66.98
2022-10-29T20:29:09.586Z,67.13
2022-10-29T20:31:41.432Z,68.47
2022-10-29T20:34:11.209Z,69.40
2022-10-29T20:36:40.780Z,69.20
2022-10-29T20:39:10.068Z,68.89
2022-10-29T20:41:39.976Z,69.28
2022-10-29T20:44:09.483Z,69.18
2022-10-29T20:46:42.568Z,69.21
2022-10-29T20:49:13.060Z,69.48
2022-10-29T20:51:42.085Z,69.53
2022-10-29T20:54:11.497Z,69.66
2022-10-29T20:56:40.738Z,69.64
2022-10-29T20:59:09.830Z,69.70
2022-10-29T21:01:39.188Z,69.65
2022-10-29T21:04:08.769Z,70.07
2022-10-29T21:06:38.064Z,69.96
2022-10-29T21:09:08.151Z,70.18
2022-10-29T21:11:37.356Z,70.17
2022-10-29T21:14:07.240Z,70.05
2022-10-29T21:16:36.269Z,70.03
2022-10-29T21:19:07.829Z,69.66
2022-10-29T21:21:37.324Z,69.64
2022-10-29T21:24:06.250Z,69.81
2022-10-29T21:26:36.086Z,69.95
2022-10-29T21:29:04.991Z,70.27
2022-10-29T21:31:34.141Z,70.12
2022-10-29T21:34:03.321Z,70.05
2022-10-29T21:36:32.494Z,70.64
2022-10-29T21:39:01.345Z,70.72
2022-10-29T21:41:31.275Z,70.54
2022-10-29T21:44:00.578Z,70.61
2022-10-29T21:46:30.289Z,70.67
2022-10-29T21:48:59.495Z,71.11
2022-10-29T21:51:28.539Z,71.13
2022-10-29T21:53:57.608Z,71.70
2022-10-29T21:56:26.582Z,71.89
2022-10-29T21:58:56.635Z,71.39
2022-10-29T22:01:26.156Z,71.49
2022-10-29T22:03:55.193Z,71.65
2022-10-29T22:06:28.557Z,72.04
2022-10-29T22:09:01.488Z,72.16
2022-10-29T22:11:30.646Z,72.67
2022-10-29T22:14:00.335Z,72.95
2022-10-29T22:16:29.525Z,73.37
2022-10-29T22:18:58.380Z,73.26
2022-10-29T22:21:28.282Z,73.22
2022-10-29T22:23:59.006Z,73.39
2022-10-29T22:26:30.165Z,73.52
2022-10-29T22:28:59.154Z,73.94
2022-10-29T22:31:28.449Z,73.98
2022-10-29T22:33:57.381Z,74.43
2022-10-29T22:36:29.456Z,74.61
2022-10-29T22:39:00.652Z,74.91
2022-10-29T22:41:31.405Z,75.08
2022-10-29T22:44:00.487Z,75.48
2022-10-29T22:46:31.112Z,75.82
2022-10-29T22:49:03.306Z,76.08
2022-10-29T22:51:34.829Z,76.28
2022-10-29T22:54:04.444Z,76.23
2022-10-29T22:56:35.969Z,76.45
2022-10-29T22:59:07.589Z,76.64
2022-10-29T23:01:42.114Z,76.69
2022-10-29T23:04:15.076Z,76.75
2022-10-29T23:06:44.242Z,76.74
2022-10-29T23:09:13.017Z,76.98
2022-10-29T23:11:42.341Z,77.33
2022-10-29T23:14:11.478Z,77.48
2022-10-29T23:16:40.636Z,77.67
2022-10-29T23:19:11.801Z,77.49
2022-10-29T23:21:41.343Z,77.63
2022-10-29T23:24:11.465Z,77.45
2022-10-29T23:26:40.666Z,77.83
2022-10-29T23:29:10.071Z,77.85
2022-10-29T23:31:39.140Z,77.84
2022-10-29T23:34:08.678Z,77.77
2022-10-29T23:36:37.818Z,77.86
2022-10-29T23:39:07.278Z,78.00
2022-10-29T23:41:36.238Z,77.84
2022-10-29T23:44:05.802Z,77.69
2022-10-29T23:46:34.966Z,78.00
2022-10-29T23:49:04.163Z,78.06
2022-10-29T23:51:36.074Z,78.18
2022-10-29T23:54:05.389Z,78.25
2022-10-29T23:56:34.698Z,78.17
2022-10-29T23:59:03.504Z,78.21
